createdAt,value
2017-09-23T00:00:04.916Z,71.40
2017-09-23T00:00:09.975Z,71.30
2017-09-23T00:00:14.253Z,71.70
2017-09-23T00:00:18.540Z,71.70
2017-09-23T00:00:23.600Z,71.53
2017-09-23T00:00:27.907Z,70.73
2017-09-23T00:00:32.192Z,70.30
2017-09-23T00:00:36.491Z,69.75
2017-09-23T00:00:40.791Z,69.87
2017-09-23T00:00:45.073Z,69.45
2017-09-23T00:00:49.367Z,69.35
2017-09-23T00:00:55.387Z,68.70
2017-09-23T00:00:59.677Z,67.80
2017-09-23T00:01:03.984Z,67.10
2017-09-23T00:01:08.278Z,66.40
2017-09-23T00:01:12.563Z,66.30
2017-09-23T00:01:16.841Z,66.15
2017-09-23T00:01:21.136Z,65.90
2017-09-23T00:01:25.412Z,65.87
2017-09-23T00:01:30.468Z,65.95
2017-09-23T00:01:34.771Z,66.07
2017-09-23T00:01:39.044Z,65.45
2017-09-23T00:01:43.346Z,65.50
2017-09-23T00:01:47.642Z,65.55
2017-09-23T00:01:52.681Z,65.95
2017-09-23T00:01:56.973Z,66.30
2017-09-23T00:02:01.263Z,66.90
2017-09-23T00:02:06.328Z,68.00
2017-09-23T00:02:10.624Z,68.83
2017-09-23T00:02:14.908Z,69.10
2017-09-23T00:02:19.188Z,69.70
2017-09-23T00:02:23.510Z,69.80
2017-09-23T00:02:27.796Z,70.10
2017-09-23T00:02:32.093Z,69.90
2017-09-23T00:02:37.139Z,69.90
2017-09-23T00:02:41.438Z,69.80
2017-09-23T00:02:45.714Z,69.75
2017-09-23T00:02:50.779Z,70.00
2017-09-23T00:02:55.072Z,70.00
2017-09-23T00:02:59.352Z,69.85
2017-09-23T00:03:03.635Z,69.55
2017-09-23T00:03:07.930Z,69.00
2017-09-23T00:03:12.982Z,68.43
2017-09-23T00:03:17.273Z,68.47
2017-09-23T00:03:21.571Z,68.20
2017-09-23T00:03:25.862Z,68.70
2017-09-23T00:03:30.158Z,69.60
2017-09-23T00:03:34.428Z,70.00
2017-09-23T00:03:39.484Z,70.15
2017-09-23T00:03:43.756Z,70.60
2017-09-23T00:03:48.826Z,70.53
2017-09-23T00:03:53.104Z,70.87
2017-09-23T00:03:57.398Z,71.75
2017-09-23T00:04:02.431Z,72.60
2017-09-23T00:04:06.713Z,72.90
2017-09-23T00:04:11.771Z,73.63
2017-09-23T00:04:16.050Z,74.40
2017-09-23T00:04:20.332Z,74.90
2017-09-23T00:04:24.616Z,75.05
2017-09-23T00:04:28.913Z,75.20
2017-09-23T00:04:33.193Z,75.35
2017-09-23T00:04:37.474Z,75.45
2017-09-23T00:04:41.766Z,76.00
2017-09-23T00:04:46.044Z,76.25
2017-09-23T00:04:50.356Z,76.55
2017-09-23T00:04:54.633Z,76.60
2017-09-23T00:04:59.699Z,76.80
2017-09-23T00:05:03.964Z,76.47
2017-09-23T00:05:08.245Z,76.30
2017-09-23T00:05:13.293Z,75.63
2017-09-23T00:05:17.583Z,74.60
2017-09-23T00:05:22.646Z,74.35
2017-09-23T00:05:26.933Z,73.27
2017-09-23T00:05:31.221Z,72.30
2017-09-23T00:05:35.494Z,72.03
2017-09-23T00:05:40.578Z,71.50
2017-09-23T00:05:44.848Z,71.20
2017-09-23T00:05:49.125Z,70.85
2017-09-23T00:05:54.183Z,70.00
2017-09-23T00:05:58.470Z,69.50
2017-09-23T00:06:02.872Z,69.65
2017-09-23T00:06:07.150Z,69.75
2017-09-23T00:06:11.452Z,69.63
2017-09-23T00:06:15.732Z,69.60
2017-09-23T00:06:20.798Z,69.40
2017-09-23T00:06:25.082Z,69.77
2017-09-23T00:06:29.364Z,69.73
2017-09-23T00:06:34.421Z,69.65
2017-09-23T00:06:38.701Z,68.70
2017-09-23T00:06:42.989Z,68.30
2017-09-23T00:06:48.042Z,67.67
2017-09-23T00:06:52.339Z,67.50
2017-09-23T00:06:56.622Z,67.25
2017-09-23T00:07:01.694Z,66.80
2017-09-23T00:07:06.729Z,66.57
2017-09-23T00:07:11.036Z,66.80
2017-09-23T00:07:15.326Z,67.10
2017-09-23T00:07:19.626Z,67.35
2017-09-23T00:07:24.676Z,67.00
2017-09-23T00:07:28.970Z,66.83
2017-09-23T00:07:34.021Z,67.37
2017-09-23T00:07:38.311Z,68.63
2017-09-23T00:07:42.584Z,69.30
2017-09-23T00:07:47.641Z,69.70
2017-09-23T00:07:51.932Z,70.03
2017-09-23T00:07:56.200Z,71.10
2017-09-23T00:08:01.274Z,71.50
2017-09-23T00:08:05.566Z,71.70
2017-09-23T00:08:09.849Z,72.00
2017-09-23T00:08:14.149Z,71.80
2017-09-23T00:08:18.436Z,72.00
2017-09-23T00:08:23.498Z,72.75
2017-09-23T00:08:28.528Z,72.80
2017-09-23T00:08:32.836Z,72.80
2017-09-23T00:08:37.117Z,72.75
2017-09-23T00:08:41.398Z,72.55
2017-09-23T00:08:46.444Z,72.53
2017-09-23T00:08:50.742Z,72.50
2017-09-23T00:08:55.024Z,71.50
2017-09-23T00:08:59.292Z,71.25
2017-09-23T00:09:04.354Z,72.00
2017-09-23T00:09:08.642Z,72.30
2017-09-23T00:09:12.932Z,72.60
2017-09-23T00:09:17.222Z,72.85
2017-09-23T00:09:22.253Z,72.45
2017-09-23T00:09:26.542Z,73.20
2017-09-23T00:09:31.576Z,73.40
2017-09-23T00:09:35.871Z,72.77
2017-09-23T00:09:40.161Z,73.20
2017-09-23T00:09:45.217Z,73.60
2017-09-23T00:09:49.492Z,73.63
2017-09-23T00:09:53.820Z,73.93
2017-09-23T00:09:58.130Z,73.65
2017-09-23T00:10:02.438Z,72.55
2017-09-23T00:10:06.720Z,72.03
2017-09-23T00:10:10.997Z,71.15
2017-09-23T00:10:15.289Z,71.00
2017-09-23T00:10:20.327Z,70.70
2017-09-23T00:10:24.639Z,70.30
2017-09-23T00:10:28.922Z,70.20
2017-09-23T00:10:33.196Z,70.60
2017-09-23T00:10:38.236Z,70.60
2017-09-23T00:10:42.525Z,70.23
2017-09-23T00:10:47.581Z,70.70
2017-09-23T00:10:51.875Z,71.10
2017-09-23T00:10:56.149Z,71.90
2017-09-23T00:11:01.229Z,72.60
2017-09-23T00:11:05.513Z,72.87
2017-09-23T00:11:10.565Z,73.30
2017-09-23T00:11:14.850Z,73.80
2017-09-23T00:11:19.209Z,74.70
2017-09-23T00:11:23.490Z,75.03
2017-09-23T00:11:28.544Z,76.10
2017-09-23T00:11:32.827Z,77.10
2017-09-23T00:11:37.122Z,78.00
2017-09-23T00:11:41.423Z,78.03
2017-09-23T00:11:45.698Z,77.90
2017-09-23T00:11:51.002Z,78.10
2017-09-23T00:11:55.281Z,78.28
2017-09-23T00:11:59.586Z,78.75
2017-09-23T00:12:03.860Z,79.35
2017-09-23T00:12:08.160Z,80.17
2017-09-23T00:12:12.449Z,80.60
2017-09-23T00:12:17.488Z,80.75
2017-09-23T00:12:21.764Z,81.33
2017-09-23T00:12:26.807Z,81.20
2017-09-23T00:12:31.095Z,80.20
2017-09-23T00:12:35.368Z,79.85
2017-09-23T00:12:40.408Z,79.75
2017-09-23T00:12:44.701Z,80.00
2017-09-23T00:12:49.729Z,79.73
2017-09-23T00:12:54.016Z,79.43
2017-09-23T00:12:59.072Z,79.25
2017-09-23T00:13:03.359Z,79.33
2017-09-23T00:13:07.636Z,79.30
2017-09-23T00:13:12.892Z,79.43
2017-09-23T00:13:17.258Z,79.47
2017-09-23T00:13:21.543Z,79.55
2017-09-23T00:13:25.829Z,80.10
2017-09-23T00:13:30.108Z,80.75
2017-09-23T00:13:34.400Z,81.10
2017-09-23T00:13:38.676Z,81.65
2017-09-23T00:13:42.970Z,82.35
2017-09-23T00:13:48.013Z,82.55
2017-09-23T00:13:52.284Z,83.30
2017-09-23T00:13:57.393Z,83.25
2017-09-23T00:14:01.715Z,83.05
2017-09-23T00:14:07.338Z,83.30
2017-09-23T00:14:11.770Z,83.50
2017-09-23T00:14:16.070Z,82.55
2017-09-23T00:14:20.363Z,81.70
2017-09-23T00:14:25.414Z,81.63
2017-09-23T00:14:29.719Z,81.97
2017-09-23T00:14:34.786Z,81.90
2017-09-23T00:14:39.857Z,81.63
2017-09-23T00:14:44.129Z,81.30
2017-09-23T00:14:48.417Z,81.50
2017-09-23T00:14:53.498Z,81.95
2017-09-23T00:14:57.770Z,82.00
2017-09-23T00:15:02.062Z,81.35
2017-09-23T00:15:06.358Z,81.20
2017-09-23T00:15:10.652Z,81.30
2017-09-23T00:15:14.921Z,82.10
2017-09-23T00:15:19.204Z,83.00
2017-09-23T00:15:23.488Z,83.13
2017-09-23T00:15:27.779Z,82.90
2017-09-23T00:15:32.066Z,82.85
2017-09-23T00:15:36.354Z,82.50
2017-09-23T00:15:40.639Z,82.90
2017-09-23T00:15:45.694Z,83.60
2017-09-23T00:15:49.972Z,83.05
2017-09-23T00:15:54.279Z,83.97
2017-09-23T00:15:58.548Z,84.30
2017-09-23T00:16:03.591Z,84.65
2017-09-23T00:16:07.860Z,84.37
2017-09-23T00:16:12.162Z,84.43
2017-09-23T00:16:16.446Z,84.60
2017-09-23T00:16:20.724Z,84.10
2017-09-23T00:16:25.021Z,83.10
2017-09-23T00:16:29.306Z,83.00
2017-09-23T00:16:33.598Z,83.45
2017-09-23T00:16:37.865Z,83.35
2017-09-23T00:16:42.160Z,82.40
2017-09-23T00:16:46.454Z,81.70
2017-09-23T00:16:50.740Z,81.50
2017-09-23T00:16:55.831Z,80.60
2017-09-23T00:17:00.130Z,80.47
2017-09-23T00:17:04.412Z,80.45
2017-09-23T00:17:09.468Z,80.15
2017-09-23T00:17:13.750Z,79.63
2017-09-23T00:17:18.040Z,79.40
2017-09-23T00:17:22.326Z,80.05
2017-09-23T00:17:27.386Z,80.15
2017-09-23T00:17:31.655Z,80.13
2017-09-23T00:17:36.701Z,80.70
2017-09-23T00:17:41.037Z,81.53
2017-09-23T00:17:45.302Z,81.95
2017-09-23T00:17:49.579Z,82.40
2017-09-23T00:17:54.635Z,83.00
2017-09-23T00:17:58.920Z,83.20
2017-09-23T00:18:03.206Z,84.00
2017-09-23T00:18:08.245Z,84.15
2017-09-23T00:18:12.523Z,85.00
2017-09-23T00:18:16.826Z,85.20
2017-09-23T00:18:21.882Z,85.25
2017-09-23T00:18:26.181Z,85.93
2017-09-23T00:18:30.460Z,85.95
2017-09-23T00:18:34.755Z,85.60
2017-09-23T00:18:39.037Z,85.75
2017-09-23T00:18:43.344Z,86.80
2017-09-23T00:18:48.399Z,86.83
2017-09-23T00:18:52.690Z,86.87
2017-09-23T00:18:56.965Z,86.60
2017-09-23T00:19:02.042Z,86.40
2017-09-23T00:19:06.312Z,86.43
2017-09-23T00:19:10.616Z,86.00
2017-09-23T00:19:14.890Z,86.10
2017-09-23T00:19:19.183Z,86.30
2017-09-23T00:19:24.220Z,86.57
2017-09-23T00:19:28.505Z,86.77
2017-09-23T00:19:32.783Z,86.75
2017-09-23T00:19:39.508Z,86.65
2017-09-23T00:19:43.790Z,84.72
2017-09-23T00:19:48.058Z,84.10
2017-09-23T00:19:53.112Z,83.60
2017-09-23T00:19:57.401Z,83.87
2017-09-23T00:20:01.687Z,83.95
2017-09-23T00:20:06.731Z,83.50
2017-09-23T00:20:11.000Z,83.80
2017-09-23T00:20:16.044Z,83.63
2017-09-23T00:20:20.323Z,83.63
2017-09-23T00:20:25.376Z,83.30
2017-09-23T00:20:29.670Z,83.87
2017-09-23T00:20:33.954Z,84.10
2017-09-23T00:20:38.273Z,84.30
2017-09-23T00:20:42.553Z,85.00
2017-09-23T00:20:47.598Z,85.20
2017-09-23T00:20:51.886Z,85.50
2017-09-23T00:20:56.164Z,86.07
2017-09-23T00:21:01.220Z,85.75
2017-09-23T00:21:05.521Z,85.63
2017-09-23T00:21:09.819Z,85.15
2017-09-23T00:21:14.119Z,84.83
2017-09-23T00:21:18.410Z,85.00
2017-09-23T00:21:22.701Z,85.00
2017-09-23T00:21:26.982Z,84.40
2017-09-23T00:21:32.036Z,84.45
2017-09-23T00:21:36.331Z,84.47
2017-09-23T00:21:40.619Z,84.95
2017-09-23T00:21:45.674Z,85.30
2017-09-23T00:21:49.956Z,85.93
2017-09-23T00:21:54.228Z,85.05
2017-09-23T00:21:59.283Z,84.90
2017-09-23T00:22:03.554Z,84.97
2017-09-23T00:22:08.603Z,84.53
2017-09-23T00:22:12.880Z,84.70
2017-09-23T00:22:17.156Z,84.45
2017-09-23T00:22:22.239Z,83.55
2017-09-23T00:22:26.500Z,83.23
2017-09-23T00:22:30.804Z,82.37
2017-09-23T00:22:35.083Z,81.65
2017-09-23T00:22:40.137Z,81.30
2017-09-23T00:22:44.427Z,80.87
2017-09-23T00:22:48.708Z,80.07
2017-09-23T00:22:53.760Z,80.40
2017-09-23T00:22:58.045Z,80.73
2017-09-23T00:23:02.340Z,81.15
2017-09-23T00:23:06.641Z,81.50
2017-09-23T00:23:10.926Z,82.00
2017-09-23T00:23:15.209Z,82.30
2017-09-23T00:23:19.488Z,82.60
2017-09-23T00:23:23.795Z,82.90
2017-09-23T00:23:28.094Z,82.80
2017-09-23T00:23:32.373Z,83.15
2017-09-23T00:23:36.648Z,83.03
2017-09-23T00:23:40.928Z,82.55
2017-09-23T00:23:45.218Z,82.05
2017-09-23T00:23:49.519Z,82.30
2017-09-23T00:23:53.798Z,81.75
2017-09-23T00:23:58.068Z,81.40
2017-09-23T00:24:02.348Z,81.60
2017-09-23T00:24:07.418Z,82.15
2017-09-23T00:24:11.703Z,81.93
2017-09-23T00:24:15.976Z,82.40
2017-09-23T00:24:20.282Z,82.35
2017-09-23T00:24:24.561Z,82.17
2017-09-23T00:24:28.836Z,82.40
2017-09-23T00:24:33.108Z,82.40
2017-09-23T00:24:37.392Z,82.50
2017-09-23T00:24:41.675Z,82.35
2017-09-23T00:24:46.742Z,82.55
2017-09-23T00:24:51.012Z,82.27
2017-09-23T00:24:55.330Z,82.00
2017-09-23T00:24:59.605Z,80.85
2017-09-23T00:25:03.881Z,79.80
2017-09-23T00:25:08.924Z,79.27
2017-09-23T00:25:13.226Z,79.23
2017-09-23T00:25:17.492Z,78.35
2017-09-23T00:25:21.775Z,79.20
2017-09-23T00:25:26.044Z,79.30
2017-09-23T00:25:30.350Z,80.00
2017-09-23T00:25:34.612Z,80.50
2017-09-23T00:25:39.655Z,80.85
2017-09-23T00:25:43.944Z,81.77
2017-09-23T00:25:48.237Z,82.20
2017-09-23T00:25:53.267Z,82.35
2017-09-23T00:25:57.562Z,83.07
2017-09-23T00:26:02.046Z,83.57
2017-09-23T00:26:06.975Z,83.60
2017-09-23T00:26:12.032Z,83.10
2017-09-23T00:26:16.322Z,83.20
2017-09-23T00:26:20.603Z,83.60
2017-09-23T00:26:25.640Z,83.53
2017-09-23T00:26:29.946Z,83.53
2017-09-23T00:26:34.233Z,83.65
2017-09-23T00:26:38.522Z,83.70
2017-09-23T00:26:43.561Z,83.60
2017-09-23T00:26:47.852Z,82.87
2017-09-23T00:26:52.129Z,82.45
2017-09-23T00:26:57.188Z,81.90
2017-09-23T00:27:01.461Z,82.17
2017-09-23T00:27:06.515Z,82.67
2017-09-23T00:27:10.801Z,82.77
2017-09-23T00:27:15.089Z,82.65
2017-09-23T00:27:20.120Z,81.60
2017-09-23T00:27:24.415Z,81.27
2017-09-23T00:27:28.696Z,80.43
2017-09-23T00:27:33.748Z,79.80
2017-09-23T00:27:38.034Z,79.30
2017-09-23T00:27:42.308Z,78.20
2017-09-23T00:27:47.366Z,78.00
2017-09-23T00:27:51.655Z,78.20
2017-09-23T00:27:55.931Z,78.95
2017-09-23T00:28:00.977Z,79.35
2017-09-23T00:28:05.256Z,79.70
2017-09-23T00:28:10.311Z,80.33
2017-09-23T00:28:14.608Z,81.10
2017-09-23T00:28:18.898Z,81.85
2017-09-23T00:28:23.172Z,81.90
2017-09-23T00:28:28.251Z,82.57
2017-09-23T00:28:32.520Z,83.80
2017-09-23T00:28:37.019Z,83.90
2017-09-23T00:28:42.056Z,84.75
2017-09-23T00:28:46.328Z,85.50
2017-09-23T00:28:51.385Z,86.05
2017-09-23T00:28:55.657Z,86.80
2017-09-23T00:28:59.928Z,86.80
2017-09-23T00:29:04.234Z,86.75
2017-09-23T00:29:08.524Z,87.30
2017-09-23T00:29:12.818Z,87.25
2017-09-23T00:29:17.087Z,87.35
2017-09-23T00:29:21.387Z,87.93
2017-09-23T00:29:25.660Z,88.65
2017-09-23T00:29:29.951Z,88.55
2017-09-23T00:29:35.004Z,88.30
2017-09-23T00:29:39.622Z,87.93
2017-09-23T00:29:43.893Z,87.70
2017-09-23T00:29:48.937Z,87.80
2017-09-23T00:29:53.225Z,86.73
2017-09-23T00:29:57.508Z,86.40
2017-09-23T00:30:01.797Z,86.15
2017-09-23T00:30:06.856Z,85.50
2017-09-23T00:30:11.148Z,84.50
2017-09-23T00:30:15.432Z,84.40
2017-09-23T00:30:19.727Z,84.20
2017-09-23T00:30:24.807Z,84.07
2017-09-23T00:30:29.111Z,82.90
2017-09-23T00:30:33.380Z,82.55
2017-09-23T00:30:37.671Z,82.45
2017-09-23T00:30:41.973Z,82.70
2017-09-23T00:30:46.281Z,82.45
2017-09-23T00:30:50.558Z,82.60
2017-09-23T00:30:54.858Z,82.57
2017-09-23T00:30:59.919Z,82.50
2017-09-23T00:31:04.189Z,82.70
2017-09-23T00:31:08.478Z,82.60
2017-09-23T00:31:13.520Z,82.80
2017-09-23T00:31:17.788Z,82.40
2017-09-23T00:31:22.839Z,81.70
2017-09-23T00:31:27.250Z,82.07
2017-09-23T00:31:32.262Z,82.45
2017-09-23T00:31:36.532Z,82.40
2017-09-23T00:31:41.575Z,82.13
2017-09-23T00:31:45.883Z,82.30
2017-09-23T00:31:50.158Z,82.55
2017-09-23T00:31:55.209Z,82.95
2017-09-23T00:31:59.485Z,83.00
2017-09-23T00:32:03.774Z,82.47
2017-09-23T00:32:08.832Z,82.10
2017-09-23T00:32:13.131Z,82.37
2017-09-23T00:32:17.418Z,82.60
2017-09-23T00:32:21.705Z,82.60
2017-09-23T00:32:25.999Z,82.25
2017-09-23T00:32:31.050Z,82.10
2017-09-23T00:32:35.342Z,82.40
2017-09-23T00:32:39.625Z,82.53
2017-09-23T00:32:44.699Z,82.40
2017-09-23T00:32:48.964Z,82.10
2017-09-23T00:32:53.266Z,81.90
2017-09-23T00:32:57.558Z,81.53
2017-09-23T00:33:01.860Z,81.90
2017-09-23T00:33:06.140Z,82.50
2017-09-23T00:33:11.205Z,82.40
2017-09-23T00:33:15.490Z,81.80
2017-09-23T00:33:19.761Z,80.90
2017-09-23T00:33:24.819Z,80.80
2017-09-23T00:33:29.098Z,80.00
2017-09-23T00:33:33.404Z,79.43
2017-09-23T00:33:37.672Z,78.75
2017-09-23T00:33:42.722Z,78.00
2017-09-23T00:33:47.014Z,77.83
2017-09-23T00:33:52.044Z,77.83
2017-09-23T00:33:56.360Z,77.93
2017-09-23T00:34:00.644Z,77.35
2017-09-23T00:34:04.920Z,77.00
2017-09-23T00:34:09.970Z,76.83
2017-09-23T00:34:14.256Z,76.93
2017-09-23T00:34:18.547Z,77.10
2017-09-23T00:34:23.599Z,77.10
2017-09-23T00:34:27.892Z,77.83
2017-09-23T00:34:32.173Z,78.50
2017-09-23T00:34:36.464Z,79.55
2017-09-23T00:34:40.763Z,80.45
2017-09-23T00:34:45.803Z,80.87
2017-09-23T00:34:50.085Z,80.90
2017-09-23T00:34:55.144Z,80.35
2017-09-23T00:34:59.432Z,80.70
2017-09-23T00:35:03.715Z,81.00
2017-09-23T00:35:08.774Z,81.20
2017-09-23T00:35:13.074Z,81.33
2017-09-23T00:35:17.353Z,81.30
2017-09-23T00:35:21.647Z,81.55
2017-09-23T00:35:25.934Z,81.23
2017-09-23T00:35:31.002Z,80.45
2017-09-23T00:35:35.342Z,80.10
2017-09-23T00:35:39.622Z,79.30
2017-09-23T00:35:43.925Z,79.27
2017-09-23T00:35:48.196Z,79.35
2017-09-23T00:35:52.491Z,80.60
2017-09-23T00:35:56.763Z,80.47
2017-09-23T00:36:01.812Z,80.60
2017-09-23T00:36:06.087Z,80.83
2017-09-23T00:36:10.376Z,80.75
2017-09-23T00:36:15.434Z,80.90
2017-09-23T00:36:19.794Z,81.13
2017-09-23T00:36:24.078Z,81.30
2017-09-23T00:36:28.368Z,81.55
2017-09-23T00:36:32.648Z,81.50
2017-09-23T00:36:36.937Z,81.60
2017-09-23T00:36:41.207Z,81.95
2017-09-23T00:36:46.262Z,82.30
2017-09-23T00:36:50.555Z,82.10
2017-09-23T00:36:54.848Z,82.25
2017-09-23T00:36:59.130Z,82.95
2017-09-23T00:37:04.183Z,83.00
2017-09-23T00:37:08.470Z,82.65
2017-09-23T00:37:12.757Z,82.25
2017-09-23T00:37:17.028Z,82.15
2017-09-23T00:37:21.317Z,81.55
2017-09-23T00:37:25.596Z,81.47
2017-09-23T00:37:29.896Z,81.80
2017-09-23T00:37:34.183Z,82.15
2017-09-23T00:37:38.482Z,82.33
2017-09-23T00:37:42.771Z,82.20
2017-09-23T00:37:47.054Z,82.45
2017-09-23T00:37:52.117Z,81.93
2017-09-23T00:37:56.415Z,81.57
2017-09-23T00:38:00.701Z,80.80
2017-09-23T00:38:04.992Z,80.30
2017-09-23T00:38:09.271Z,81.20
2017-09-23T00:38:14.343Z,82.05
2017-09-23T00:38:18.620Z,82.33
2017-09-23T00:38:22.897Z,82.80
2017-09-23T00:38:27.957Z,82.40
2017-09-23T00:38:32.250Z,82.20
2017-09-23T00:38:36.542Z,82.05
2017-09-23T00:38:40.812Z,81.85
2017-09-23T00:38:45.870Z,81.10
2017-09-23T00:38:50.157Z,80.97
2017-09-23T00:38:54.436Z,81.00
2017-09-23T00:38:59.480Z,81.15
2017-09-23T00:39:03.759Z,81.47
2017-09-23T00:39:08.812Z,80.80
2017-09-23T00:39:13.109Z,81.07
2017-09-23T00:39:17.406Z,80.95
2017-09-23T00:39:21.702Z,80.90
2017-09-23T00:39:25.964Z,81.03
2017-09-23T00:39:31.042Z,80.75
2017-09-23T00:39:35.317Z,80.93
2017-09-23T00:39:39.627Z,81.10
2017-09-23T00:39:43.911Z,80.80
2017-09-23T00:39:48.972Z,80.55
2017-09-23T00:39:53.259Z,79.67
2017-09-23T00:39:57.542Z,79.50
2017-09-23T00:40:01.846Z,79.10
2017-09-23T00:40:06.133Z,79.45
2017-09-23T00:40:10.418Z,79.30
2017-09-23T00:40:15.462Z,78.95
2017-09-23T00:40:19.794Z,79.22
2017-09-23T00:40:24.060Z,79.40
2017-09-23T00:40:28.346Z,79.10
2017-09-23T00:40:33.492Z,78.90
2017-09-23T00:40:37.778Z,79.28
2017-09-23T00:40:42.832Z,79.35
2017-09-23T00:40:47.109Z,79.60
2017-09-23T00:40:51.405Z,80.25
2017-09-23T00:40:55.706Z,80.60
2017-09-23T00:40:59.976Z,81.35
2017-09-23T00:41:04.261Z,81.80
2017-09-23T00:41:08.537Z,81.70
2017-09-23T00:41:12.830Z,81.90
2017-09-23T00:41:17.109Z,81.40
2017-09-23T00:41:21.414Z,81.15
2017-09-23T00:41:25.694Z,81.70
2017-09-23T00:41:30.753Z,82.10
2017-09-23T00:41:35.040Z,81.80
2017-09-23T00:41:39.321Z,82.10
2017-09-23T00:41:44.375Z,82.60
2017-09-23T00:41:48.682Z,82.60
2017-09-23T00:41:52.952Z,82.70
2017-09-23T00:41:57.250Z,82.65
2017-09-23T00:42:02.296Z,82.13
2017-09-23T00:42:06.598Z,81.60
2017-09-23T00:42:10.873Z,81.15
2017-09-23T00:42:15.169Z,81.05
2017-09-23T00:42:20.256Z,81.40
2017-09-23T00:42:24.564Z,81.37
2017-09-23T00:42:28.850Z,81.40
2017-09-23T00:42:33.143Z,82.05
2017-09-23T00:42:37.454Z,81.83
2017-09-23T00:42:41.740Z,81.55
2017-09-23T00:42:46.025Z,82.45
2017-09-23T00:42:50.326Z,82.47
2017-09-23T00:42:54.614Z,82.20
2017-09-23T00:42:58.907Z,82.10
2017-09-23T00:43:03.199Z,83.30
2017-09-23T00:43:08.252Z,84.35
2017-09-23T00:43:12.530Z,85.20
2017-09-23T00:43:16.823Z,85.65
2017-09-23T00:43:21.110Z,86.40
2017-09-23T00:43:26.161Z,86.70
2017-09-23T00:43:30.444Z,86.90
2017-09-23T00:43:34.737Z,86.80
2017-09-23T00:43:39.799Z,87.90
2017-09-23T00:43:44.119Z,87.80
2017-09-23T00:43:48.396Z,87.40
2017-09-23T00:43:52.687Z,88.25
2017-09-23T00:43:56.964Z,87.93
2017-09-23T00:44:02.009Z,87.30
2017-09-23T00:44:06.302Z,87.17
2017-09-23T00:44:10.577Z,87.30
2017-09-23T00:44:15.630Z,86.95
2017-09-23T00:44:19.940Z,86.70
2017-09-23T00:44:24.229Z,86.90
2017-09-23T00:44:28.496Z,86.65
2017-09-23T00:44:32.794Z,86.80
2017-09-23T00:44:37.858Z,86.40
2017-09-23T00:44:42.152Z,86.67
2017-09-23T00:44:46.521Z,87.15
2017-09-23T00:44:51.566Z,87.00
2017-09-23T00:44:55.860Z,87.17
2017-09-23T00:45:00.151Z,87.85
2017-09-23T00:45:05.217Z,87.70
2017-09-23T00:45:09.513Z,87.53
2017-09-23T00:45:13.798Z,87.80
2017-09-23T00:45:18.070Z,87.70
2017-09-23T00:45:23.133Z,87.25
2017-09-23T00:45:27.397Z,87.03
2017-09-23T00:45:31.694Z,86.87
2017-09-23T00:45:36.752Z,86.80
2017-09-23T00:45:41.050Z,86.70
2017-09-23T00:45:45.325Z,85.80
2017-09-23T00:45:49.616Z,85.40
2017-09-23T00:45:53.892Z,85.15
2017-09-23T00:45:58.170Z,84.40
2017-09-23T00:46:02.468Z,84.37
2017-09-23T00:46:06.768Z,83.80
2017-09-23T00:46:11.064Z,83.10
2017-09-23T00:46:15.336Z,83.00
2017-09-23T00:46:19.620Z,83.10
2017-09-23T00:46:23.896Z,83.35
2017-09-23T00:46:28.243Z,83.40
2017-09-23T00:46:32.533Z,83.70
2017-09-23T00:46:36.817Z,83.80
2017-09-23T00:46:41.872Z,83.80
2017-09-23T00:46:46.140Z,84.27
2017-09-23T00:46:51.180Z,84.73
2017-09-23T00:46:55.487Z,86.07
2017-09-23T00:46:59.788Z,87.15
2017-09-23T00:47:04.074Z,87.70
2017-09-23T00:47:08.360Z,89.03
2017-09-23T00:47:13.430Z,89.40
2017-09-23T00:47:17.726Z,89.17
2017-09-23T00:47:22.005Z,89.45
2017-09-23T00:47:26.319Z,89.80
2017-09-23T00:47:30.596Z,90.20
2017-09-23T00:47:34.875Z,90.20
2017-09-23T00:47:39.947Z,90.33
2017-09-23T00:47:44.255Z,89.83
2017-09-23T00:47:48.539Z,89.65
2017-09-23T00:47:52.818Z,89.55
2017-09-23T00:47:57.105Z,88.93
2017-09-23T00:48:02.255Z,87.80
2017-09-23T00:48:06.535Z,86.90
2017-09-23T00:48:11.577Z,86.90
2017-09-23T00:48:15.873Z,86.70
2017-09-23T00:48:20.191Z,86.43
2017-09-23T00:48:24.491Z,86.15
2017-09-23T00:48:28.760Z,85.60
2017-09-23T00:48:33.056Z,85.10
2017-09-23T00:48:38.118Z,84.45
2017-09-23T00:48:42.622Z,84.40
2017-09-23T00:48:46.899Z,85.07
2017-09-23T00:48:51.180Z,85.40
2017-09-23T00:48:56.229Z,85.30
2017-09-23T00:49:00.499Z,85.40
2017-09-23T00:49:05.567Z,86.00
2017-09-23T00:49:09.879Z,86.32
2017-09-23T00:49:14.153Z,86.55
2017-09-23T00:49:18.439Z,86.55
2017-09-23T00:49:22.735Z,86.50
2017-09-23T00:49:27.042Z,85.70
2017-09-23T00:49:31.312Z,85.20
2017-09-23T00:49:36.449Z,85.25
2017-09-23T00:49:41.489Z,84.95
2017-09-23T00:49:45.768Z,85.13
2017-09-23T00:49:50.823Z,85.50
2017-09-23T00:49:55.108Z,86.20
2017-09-23T00:49:59.399Z,86.65
2017-09-23T00:50:04.456Z,86.47
2017-09-23T00:50:08.774Z,85.17
2017-09-23T00:50:13.053Z,85.10
2017-09-23T00:50:17.338Z,85.00
2017-09-23T00:50:21.630Z,84.90
2017-09-23T00:50:25.905Z,85.40
2017-09-23T00:50:30.965Z,86.10
2017-09-23T00:50:35.236Z,85.73
2017-09-23T00:50:39.542Z,85.40
2017-09-23T00:50:44.597Z,85.40
2017-09-23T00:50:48.863Z,85.07
2017-09-23T00:50:53.158Z,84.40
2017-09-23T00:50:58.196Z,84.40
2017-09-23T00:51:02.496Z,84.37
2017-09-23T00:51:06.806Z,85.15
2017-09-23T00:51:11.100Z,85.50
2017-09-23T00:51:15.380Z,85.53
2017-09-23T00:51:20.451Z,86.05
2017-09-23T00:51:24.740Z,86.43
2017-09-23T00:51:29.025Z,86.30
2017-09-23T00:51:33.297Z,87.30
2017-09-23T00:51:38.361Z,88.35
2017-09-23T00:51:42.637Z,88.20
2017-09-23T00:51:46.928Z,87.70
2017-09-23T00:51:51.222Z,87.55
2017-09-23T00:51:56.271Z,86.80
2017-09-23T00:52:00.559Z,86.60
2017-09-23T00:52:04.846Z,86.95
2017-09-23T00:52:09.142Z,86.67
2017-09-23T00:52:14.323Z,86.80
2017-09-23T00:52:18.600Z,86.17
2017-09-23T00:52:22.886Z,85.70
2017-09-23T00:52:27.184Z,85.70
2017-09-23T00:52:31.483Z,85.35
2017-09-23T00:52:35.766Z,84.90
2017-09-23T00:52:40.826Z,84.70
2017-09-23T00:52:45.116Z,84.93
2017-09-23T00:52:49.410Z,84.45
2017-09-23T00:52:53.684Z,84.50
2017-09-23T00:52:58.744Z,85.00
2017-09-23T00:53:03.047Z,85.07
2017-09-23T00:53:07.317Z,84.75
2017-09-23T00:53:11.615Z,84.40
2017-09-23T00:53:16.679Z,84.50
2017-09-23T00:53:20.978Z,84.67
2017-09-23T00:53:25.259Z,85.05
2017-09-23T00:53:29.546Z,84.90
2017-09-23T00:53:33.836Z,84.87
2017-09-23T00:53:38.903Z,84.65
2017-09-23T00:53:43.198Z,84.40
2017-09-23T00:53:47.484Z,84.10
2017-09-23T00:53:51.773Z,84.75
2017-09-23T00:53:56.052Z,85.10
2017-09-23T00:54:01.120Z,85.05
2017-09-23T00:54:05.388Z,84.90
2017-09-23T00:54:09.677Z,85.50
2017-09-23T00:54:14.746Z,86.03
2017-09-23T00:54:19.038Z,87.07
2017-09-23T00:54:23.311Z,87.15
2017-09-23T00:54:27.611Z,87.65
2017-09-23T00:54:31.887Z,88.37
2017-09-23T00:54:36.938Z,89.00
2017-09-23T00:54:41.222Z,90.17
2017-09-23T00:54:45.535Z,90.50
2017-09-23T00:54:49.824Z,90.67
2017-09-23T00:54:54.119Z,90.35
2017-09-23T00:54:59.181Z,90.05
2017-09-23T00:55:03.469Z,89.53
2017-09-23T00:55:07.783Z,89.47
2017-09-23T00:55:12.063Z,89.30
2017-09-23T00:55:16.344Z,88.95
2017-09-23T00:55:21.392Z,89.07
2017-09-23T00:55:25.761Z,89.10
2017-09-23T00:55:30.796Z,88.75
2017-09-23T00:55:35.071Z,88.47
2017-09-23T00:55:40.134Z,87.63
2017-09-23T00:55:44.426Z,86.50
2017-09-23T00:55:48.710Z,86.15
2017-09-23T00:55:53.751Z,85.90
2017-09-23T00:55:58.024Z,85.90
2017-09-23T00:56:03.069Z,86.13
2017-09-23T00:56:07.371Z,85.40
2017-09-23T00:56:11.662Z,84.80
2017-09-23T00:56:15.937Z,84.10
2017-09-23T00:56:20.999Z,84.33
2017-09-23T00:56:25.347Z,84.47
2017-09-23T00:56:29.614Z,84.55
2017-09-23T00:56:33.892Z,84.75
2017-09-23T00:56:38.187Z,84.47
2017-09-23T00:56:42.481Z,85.10
2017-09-23T00:56:46.791Z,85.85
2017-09-23T00:56:51.079Z,85.85
2017-09-23T00:56:56.112Z,85.87
2017-09-23T00:57:00.407Z,86.57
2017-09-23T00:57:04.689Z,87.05
2017-09-23T00:57:09.733Z,87.45
2017-09-23T00:57:14.116Z,87.35
2017-09-23T00:57:19.168Z,86.35
2017-09-23T00:57:23.440Z,85.73
2017-09-23T00:57:27.720Z,85.55
2017-09-23T00:57:31.996Z,85.07
2017-09-23T00:57:36.284Z,84.80
2017-09-23T00:57:40.572Z,84.70
2017-09-23T00:57:44.868Z,84.45